Tresckow, Pennsylvania
Current Conditions -  °F | °C
As of 9:55 AM on Monday 24 Nov 2014 (Local Time) from KHZL Reporting Station
Overcast Overcast  
Wind Chill: 61°   Ceiling: 1300
Heat Index: 61°   Visibility: 10mi
Dew Point: 55°   Wind: 6mph
Humidity: 82%   Direction: 180°S
Pressure: 29.66"   Gusts: 21mph
Location:  40.92°N, 75.96°W
Report Text: KHZL 241455Z AUTO 18005G18KT 10SM OVC013 16/13 A2966 RMK AO2 LTG DSNT S
Loading
Personal Weather Stations






























Interactive Weather Map New forecast layout! Learn more

10-Day Weather Forecast

Advertisements
Track Severe Weather on mobile